Time;durP1;ratioP1;P1;durP2;ratioP2;P2;SDS_P1;SDS_P2;PMS_P1;PMS_P2;Temp;Humidity;BMP_temperature;BMP_pressure;BME280_temperature;BME280_humidity;BME280_pressure;Samples;Min_cycle;Max_cycle;Signal;HPM_P1;HPM_P2
2021/09/22 00:00:25;;;;;;;7.95;4.00;;;;;;;;;;4995073;28;20038;-64
2021/09/22 00:02:50;;;;;;;7.38;4.10;;;;;;;;;;4992662;28;20033;-65
2021/09/22 00:05:17;;;;;;;6.63;4.05;;;;;;;;;;4989656;28;20022;-64
2021/09/22 00:07:43;;;;;;;8.82;4.18;;;;;;;;;;4991939;28;20020;-65
2021/09/22 00:10:12;;;;;;;7.50;4.20;;;;;;;;;;4992669;28;20101;-65
2021/09/22 00:12:38;;;;;;;6.30;4.10;;;;;;;;;;4990657;28;20026;-64
2021/09/22 00:15:06;;;;;;;6.72;3.90;;;;;;;;;;4989247;28;20372;-65
2021/09/22 00:17:33;;;;;;;5.38;3.97;;;;;;;;;;4981682;28;20058;-67
2021/09/22 00:19:59;;;;;;;6.68;4.10;;;;;;;;;;4987368;28;20101;-67
2021/09/22 00:22:24;;;;;;;8.10;4.28;;;;;;;;;;4990620;28;20117;-65
2021/09/22 00:24:50;;;;;;;6.32;4.13;;;;;;;;;;4989113;28;20506;-65
2021/09/22 00:27:15;;;;;;;7.22;4.22;;;;;;;;;;4990966;28;20073;-64
2021/09/22 00:29:41;;;;;;;7.80;4.25;;;;;;;;;;4987985;28;20034;-65
2021/09/22 00:32:07;;;;;;;7.07;4.20;;;;;;;;;;4974018;28;20520;-65
2021/09/22 00:34:32;;;;;;;5.40;3.90;;;;;;;;;;4973884;28;20184;-65
2021/09/22 00:36:58;;;;;;;8.27;4.25;;;;;;;;;;4991309;28;20109;-64
2021/09/22 00:39:23;;;;;;;6.82;4.05;;;;;;;;;;4991957;28;20117;-63
2021/09/22 00:41:49;;;;;;;5.38;4.05;;;;;;;;;;4988925;28;20077;-65
2021/09/22 00:44:14;;;;;;;6.75;4.25;;;;;;;;;;4992672;28;20034;-64
2021/09/22 00:46:39;;;;;;;5.28;4.07;;;;;;;;;;4974468;28;20034;-63
2021/09/22 00:49:05;;;;;;;6.28;4.13;;;;;;;;;;4985802;28;20439;-65
2021/09/22 00:51:30;;;;;;;5.80;4.18;;;;;;;;;;4989800;28;20022;-64
2021/09/22 00:53:56;;;;;;;5.60;3.97;;;;;;;;;;4992842;28;20080;-68
2021/09/22 00:56:21;;;;;;;6.60;4.18;;;;;;;;;;4989638;28;20129;-66
2021/09/22 00:58:47;;;;;;;5.95;4.22;;;;;;;;;;4992668;28;20069;-64
2021/09/22 01:01:13;;;;;;;5.93;4.25;;;;;;;;;;4991758;28;20034;-65
2021/09/22 01:03:38;;;;;;;4.65;3.95;;;;;;;;;;4973543;28;20022;-64
2021/09/22 01:06:04;;;;;;;6.35;4.25;;;;;;;;;;4992763;28;20053;-65
2021/09/22 01:08:30;;;;;;;6.03;4.63;;;;;;;;;;4992114;28;20038;-65
2021/09/22 01:10:56;;;;;;;7.75;3.97;;;;;;;;;;4972891;28;20014;-65
2021/09/22 01:13:22;;;;;;;9.25;4.70;;;;;;;;;;4982283;28;20113;-63
2021/09/22 01:15:48;;;;;;;5.55;4.25;;;;;;;;;;4990239;28;20138;-65
2021/09/22 01:18:18;;;;;;;6.45;4.30;;;;;;;;;;4990924;28;20491;-64
2021/09/22 01:20:47;;;;;;;7.40;4.40;;;;;;;;;;4984980;28;20058;-65
2021/09/22 01:23:13;;;;;;;6.90;3.75;;;;;;;;;;4974752;28;20530;-64
2021/09/22 01:25:41;;;;;;;4.65;3.75;;;;;;;;;;4992046;28;20064;-65
2021/09/22 01:28:07;;;;;;;6.55;3.97;;;;;;;;;;4990956;28;20041;-64
2021/09/22 01:30:32;;;;;;;5.22;4.00;;;;;;;;;;4986556;28;20491;-65
2021/09/22 01:33:08;;;;;;;9.45;4.10;;;;;;;;;;4988818;28;20068;-67
2021/09/22 01:35:39;;;;;;;5.17;4.23;;;;;;;;;;4990189;28;20045;-65
2021/09/22 01:38:08;;;;;;;6.38;3.75;;;;;;;;;;4988718;28;20277;-65
2021/09/22 01:40:33;;;;;;;5.20;4.00;;;;;;;;;;4989891;28;20045;-63
2021/09/22 01:42:59;;;;;;;8.40;4.15;;;;;;;;;;4990638;28;20471;-63
2021/09/22 01:45:24;;;;;;;6.18;3.78;;;;;;;;;;4988012;28;20023;-64
2021/09/22 01:47:50;;;;;;;6.13;3.78;;;;;;;;;;4981383;28;20105;-64
2021/09/22 01:50:18;;;;;;;5.68;3.60;;;;;;;;;;4961185;28;20031;-63
2021/09/22 01:52:45;;;;;;;7.43;3.75;;;;;;;;;;4976749;28;20073;-69
2021/09/22 01:55:11;;;;;;;6.85;4.32;;;;;;;;;;4995799;28;20503;-66
2021/09/22 01:57:37;;;;;;;5.97;4.25;;;;;;;;;;4996239;28;20034;-65
2021/09/22 02:00:04;;;;;;;5.93;3.97;;;;;;;;;;4993090;28;20049;-68
2021/09/22 02:02:31;;;;;;;6.05;4.00;;;;;;;;;;4996379;28;20045;-65
2021/09/22 02:04:56;;;;;;;8.98;4.20;;;;;;;;;;4996316;28;20022;-65
2021/09/22 02:07:21;;;;;;;6.65;4.75;;;;;;;;;;4995955;28;20387;-64
2021/09/22 02:09:47;;;;;;;6.20;4.25;;;;;;;;;;4998915;28;20054;-66
2021/09/22 02:12:12;;;;;;;22.50;13.52;;;;;;;;;;4993811;28;20022;-66
2021/09/22 02:14:37;;;;;;;18.23;9.57;;;;;;;;;;4996783;28;20022;-66
2021/09/22 02:17:03;;;;;;;15.95;8.88;;;;;;;;;;4997794;28;20053;-64
2021/09/22 02:19:29;;;;;;;7.82;5.10;;;;;;;;;;4997004;28;20427;-64
2021/09/22 02:21:55;;;;;;;30.73;16.13;;;;;;;;;;4989260;28;20482;-65
2021/09/22 02:24:21;;;;;;;8.90;5.72;;;;;;;;;;4995312;28;20064;-64
2021/09/22 02:26:48;;;;;;;42.22;21.02;;;;;;;;;;4989840;28;20054;-65
2021/09/22 02:29:14;;;;;;;12.20;6.40;;;;;;;;;;4989368;28;20038;-64
2021/09/22 02:31:39;;;;;;;14.70;9.70;;;;;;;;;;4986458;28;20038;-64
2021/09/22 02:34:05;;;;;;;9.63;6.47;;;;;;;;;;4995708;28;20504;-63
2021/09/22 02:36:30;;;;;;;12.20;8.35;;;;;;;;;;4996986;28;20507;-65
2021/09/22 02:38:55;;;;;;;19.48;14.65;;;;;;;;;;4995372;28;20080;-65
2021/09/22 02:41:21;;;;;;;14.35;11.35;;;;;;;;;;4996439;28;20132;-64
2021/09/22 02:43:46;;;;;;;10.00;8.98;;;;;;;;;;4997301;28;20037;-64
2021/09/22 02:46:11;;;;;;;9.25;6.72;;;;;;;;;;4978850;28;20159;-68
2021/09/22 02:48:37;;;;;;;8.10;6.22;;;;;;;;;;4979002;28;20034;-65
2021/09/22 02:51:02;;;;;;;6.53;4.90;;;;;;;;;;4997498;28;20022;-65
2021/09/22 02:53:29;;;;;;;7.68;5.22;;;;;;;;;;4980055;28;20030;-66
2021/09/22 02:55:54;;;;;;;8.17;4.83;;;;;;;;;;4995180;28;20037;-65
2021/09/22 02:58:20;;;;;;;7.82;6.93;;;;;;;;;;4988509;28;20286;-64
2021/09/22 03:00:46;;;;;;;6.55;4.97;;;;;;;;;;4993802;28;20034;-63
2021/09/22 03:03:12;;;;;;;5.97;4.37;;;;;;;;;;4994358;28;20395;-64
2021/09/22 03:05:37;;;;;;;5.60;4.50;;;;;;;;;;4994136;28;20274;-64
2021/09/22 03:08:03;;;;;;;6.18;4.68;;;;;;;;;;4993579;28;20030;-64
2021/09/22 03:10:28;;;;;;;7.78;4.68;;;;;;;;;;4995023;28;20125;-65
2021/09/22 03:12:55;;;;;;;8.10;4.38;;;;;;;;;;4993467;28;20072;-65
2021/09/22 03:15:21;;;;;;;9.07;5.03;;;;;;;;;;4993699;28;20034;-65
2021/09/22 03:17:47;;;;;;;7.97;5.80;;;;;;;;;;4994452;28;20049;-65
2021/09/22 03:20:12;;;;;;;8.93;7.13;;;;;;;;;;4993285;28;20504;-66
2021/09/22 03:22:38;;;;;;;6.72;4.68;;;;;;;;;;4978847;28;20037;-64
2021/09/22 03:25:05;;;;;;;7.25;4.40;;;;;;;;;;4977163;28;20349;-66
2021/09/22 03:27:30;;;;;;;6.88;5.25;;;;;;;;;;4992522;28;20361;-66
2021/09/22 03:29:56;;;;;;;11.02;7.50;;;;;;;;;;4960991;28;20046;-67
2021/09/22 03:32:21;;;;;;;6.70;5.53;;;;;;;;;;4992148;28;20456;-63
2021/09/22 03:34:46;;;;;;;5.80;4.40;;;;;;;;;;4992502;28;20032;-64
2021/09/22 03:37:12;;;;;;;5.95;4.10;;;;;;;;;;4993058;28;20113;-64
2021/09/22 03:39:37;;;;;;;8.02;5.85;;;;;;;;;;4992512;28;20018;-64
2021/09/22 03:42:03;;;;;;;6.10;4.50;;;;;;;;;;4993021;28;20585;-65
2021/09/22 03:44:28;;;;;;;11.57;5.50;;;;;;;;;;4993154;28;20489;-66
2021/09/22 03:46:54;;;;;;;10.75;7.25;;;;;;;;;;4991634;28;20027;-64
2021/09/22 03:49:20;;;;;;;8.60;5.90;;;;;;;;;;4994170;28;20037;-64
2021/09/22 03:51:45;;;;;;;7.80;6.25;;;;;;;;;;4982834;28;20049;-66
2021/09/22 03:54:11;;;;;;;10.55;7.38;;;;;;;;;;4974368;28;20039;-66
2021/09/22 03:56:36;;;;;;;7.47;5.43;;;;;;;;;;4989589;28;20041;-66
2021/09/22 03:59:02;;;;;;;7.63;4.32;;;;;;;;;;4989317;28;20018;-65
2021/09/22 04:01:28;;;;;;;15.75;10.48;;;;;;;;;;4993152;28;20030;-65
2021/09/22 04:03:53;;;;;;;12.35;9.02;;;;;;;;;;4986692;28;20030;-65
2021/09/22 04:06:19;;;;;;;14.73;10.07;;;;;;;;;;4993856;28;20522;-65
2021/09/22 04:08:44;;;;;;;6.32;5.07;;;;;;;;;;4992516;28;20154;-64
2021/09/22 04:11:10;;;;;;;17.98;10.30;;;;;;;;;;4993305;28;20038;-64
2021/09/22 04:13:35;;;;;;;12.20;8.25;;;;;;;;;;4992866;28;20061;-66
2021/09/22 04:16:00;;;;;;;7.78;5.60;;;;;;;;;;4989953;28;20104;-64
2021/09/22 04:18:26;;;;;;;6.68;4.93;;;;;;;;;;4992719;28;20034;-65
2021/09/22 04:20:52;;;;;;;7.70;5.10;;;;;;;;;;4992362;28;20625;-64
2021/09/22 04:23:17;;;;;;;9.60;4.50;;;;;;;;;;4991124;28;20068;-65
2021/09/22 04:25:42;;;;;;;7.18;5.07;;;;;;;;;;4986521;28;20030;-65
2021/09/22 04:28:08;;;;;;;9.23;4.32;;;;;;;;;;4968047;28;20460;-66
2021/09/22 04:30:34;;;;;;;8.43;5.80;;;;;;;;;;4974005;28;20022;-64
2021/09/22 04:32:59;;;;;;;6.40;4.72;;;;;;;;;;4972663;28;20047;-67
2021/09/22 04:35:24;;;;;;;7.80;5.50;;;;;;;;;;4977686;28;20509;-63
2021/09/22 04:37:52;;;;;;;6.78;5.00;;;;;;;;;;4991528;28;20046;-65
2021/09/22 04:40:17;;;;;;;;;;;;;;;;;;4992677;28;20037;-65
2021/09/22 04:42:42;;;;;;;7.50;4.60;;;;;;;;;;4992930;28;19913;-65
2021/09/22 04:45:08;;;;;;;7.72;5.63;;;;;;;;;;4990837;28;20053;-64
2021/09/22 04:47:36;;;;;;;9.55;5.70;;;;;;;;;;4991097;28;20023;-65
2021/09/22 04:50:04;;;;;;;7.45;5.75;;;;;;;;;;4990723;28;20030;-70
2021/09/22 04:52:29;;;;;;;8.57;6.63;;;;;;;;;;4992096;28;20105;-65
2021/09/22 04:54:54;;;;;;;9.98;6.85;;;;;;;;;;4974776;28;20113;-67
2021/09/22 04:57:20;;;;;;;10.05;6.95;;;;;;;;;;4991976;28;20030;-64
2021/09/22 04:59:45;;;;;;;10.82;7.82;;;;;;;;;;4979231;28;20073;-65
2021/09/22 05:02:11;;;;;;;10.38;7.45;;;;;;;;;;4972240;28;20030;-65
2021/09/22 05:04:36;;;;;;;9.68;6.95;;;;;;;;;;4971728;28;20031;-65
2021/09/22 05:07:02;;;;;;;11.27;7.80;;;;;;;;;;4971483;28;20073;-63
2021/09/22 05:09:27;;;;;;;10.02;7.32;;;;;;;;;;4975301;28;20022;-67
2021/09/22 05:11:54;;;;;;;12.85;7.90;;;;;;;;;;4973295;28;20022;-66
2021/09/22 05:14:19;;;;;;;10.55;7.93;;;;;;;;;;4991050;28;20526;-66
2021/09/22 05:16:45;;;;;;;11.85;7.95;;;;;;;;;;4989748;28;20137;-63
2021/09/22 05:19:10;;;;;;;15.13;8.95;;;;;;;;;;4991858;28;20106;-64
2021/09/22 05:21:36;;;;;;;11.60;8.15;;;;;;;;;;4990846;28;20388;-64
2021/09/22 05:24:01;;;;;;;15.18;8.18;;;;;;;;;;4992264;28;20468;-64
2021/09/22 05:26:26;;;;;;;11.32;8.35;;;;;;;;;;4975628;28;20603;-65
2021/09/22 05:28:52;;;;;;;11.73;8.10;;;;;;;;;;4979077;28;20471;-64
2021/09/22 05:31:17;;;;;;;24.77;14.60;;;;;;;;;;4991638;28;20077;-64
2021/09/22 05:33:42;;;;;;;12.85;8.73;;;;;;;;;;4991275;28;20092;-64
2021/09/22 05:36:08;;;;;;;12.65;8.00;;;;;;;;;;4988378;28;20026;-65
2021/09/22 05:38:33;;;;;;;11.02;8.32;;;;;;;;;;4989235;28;20049;-64
2021/09/22 05:40:59;;;;;;;12.13;8.13;;;;;;;;;;4986506;28;20027;-65
2021/09/22 05:43:24;;;;;;;13.13;7.57;;;;;;;;;;4991785;28;20018;-64
2021/09/22 05:45:49;;;;;;;15.13;8.02;;;;;;;;;;4990817;28;20037;-66
2021/09/22 05:48:15;;;;;;;13.13;8.13;;;;;;;;;;4991009;28;20054;-65
2021/09/22 05:50:40;;;;;;;13.52;8.82;;;;;;;;;;4991362;28;20482;-66
2021/09/22 05:53:06;;;;;;;14.50;9.77;;;;;;;;;;4991743;28;20023;-66
2021/09/22 05:55:31;;;;;;;11.90;8.90;;;;;;;;;;4970292;28;20126;-65
2021/09/22 05:57:56;;;;;;;10.30;7.15;;;;;;;;;;4991607;28;20110;-66
2021/09/22 06:00:22;;;;;;;10.82;7.60;;;;;;;;;;4971699;28;20038;-66
2021/09/22 06:02:47;;;;;;;12.20;8.00;;;;;;;;;;4985032;28;20019;-66
2021/09/22 06:05:12;;;;;;;13.20;8.25;;;;;;;;;;4989684;28;20395;-66
2021/09/22 06:07:38;;;;;;;10.25;6.78;;;;;;;;;;4983775;28;20518;-65
2021/09/22 06:10:04;;;;;;;9.82;6.57;;;;;;;;;;4974107;28;20046;-66
2021/09/22 06:12:30;;;;;;;8.27;5.83;;;;;;;;;;4983811;28;20026;-66
2021/09/22 06:14:55;;;;;;;12.15;7.65;;;;;;;;;;4991422;28;20464;-64
2021/09/22 06:17:20;;;;;;;9.95;7.22;;;;;;;;;;4990864;28;20530;-67
2021/09/22 06:19:46;;;;;;;8.77;6.53;;;;;;;;;;4972826;28;20400;-65
2021/09/22 06:22:11;;;;;;;10.52;7.18;;;;;;;;;;4988275;28;20023;-64
2021/09/22 06:24:37;;;;;;;12.57;8.07;;;;;;;;;;4974203;28;20112;-68
2021/09/22 06:27:02;;;;;;;9.52;7.00;;;;;;;;;;4997394;28;20604;-65
2021/09/22 06:29:29;;;;;;;7.82;6.10;;;;;;;;;;4981807;28;20055;-64
2021/09/22 06:31:55;;;;;;;9.32;6.57;;;;;;;;;;4974166;28;20345;-67
2021/09/22 06:34:21;;;;;;;10.05;6.53;;;;;;;;;;4992440;28;20057;-64
2021/09/22 06:36:47;;;;;;;10.20;6.85;;;;;;;;;;4979092;28;20133;-64
2021/09/22 06:39:13;;;;;;;8.07;6.63;;;;;;;;;;4994100;28;20105;-66
2021/09/22 06:41:39;;;;;;;8.00;6.03;;;;;;;;;;4976288;28;20061;-67
2021/09/22 06:44:04;;;;;;;7.70;5.88;;;;;;;;;;4990999;28;20033;-65
2021/09/22 06:46:31;;;;;;;7.10;5.97;;;;;;;;;;4994314;28;20455;-66
2021/09/22 06:48:57;;;;;;;7.07;5.53;;;;;;;;;;4993850;28;20542;-64
2021/09/22 06:51:22;;;;;;;6.32;5.03;;;;;;;;;;4976452;28;20026;-65
2021/09/22 06:53:48;;;;;;;7.25;5.68;;;;;;;;;;4994752;28;20084;-65
2021/09/22 06:56:13;;;;;;;7.63;5.63;;;;;;;;;;4994924;28;20018;-65
2021/09/22 06:58:39;;;;;;;6.82;5.55;;;;;;;;;;4994495;28;20026;-62
2021/09/22 07:01:04;;;;;;;7.65;5.78;;;;;;;;;;4976185;28;20061;-67
2021/09/22 07:03:29;;;;;;;8.30;5.88;;;;;;;;;;4986718;28;20044;-63
2021/09/22 07:05:55;;;;;;;8.38;5.90;;;;;;;;;;4989039;28;20104;-65
2021/09/22 07:08:20;;;;;;;7.30;5.30;;;;;;;;;;4989105;28;20036;-65
2021/09/22 07:10:46;;;;;;;9.63;5.72;;;;;;;;;;4994030;28;20030;-66
2021/09/22 07:13:12;;;;;;;7.90;5.65;;;;;;;;;;4992998;28;20037;-65
2021/09/22 07:15:37;;;;;;;9.40;6.57;;;;;;;;;;4990259;28;20038;-64
2021/09/22 07:18:03;;;;;;;10.25;6.60;;;;;;;;;;4989523;28;20022;-65
2021/09/22 07:20:28;;;;;;;7.65;5.80;;;;;;;;;;4992960;28;20098;-66
2021/09/22 07:22:54;;;;;;;7.90;5.78;;;;;;;;;;4994048;28;20026;-66
2021/09/22 07:25:20;;;;;;;8.43;6.25;;;;;;;;;;4994424;28;20034;-64
2021/09/22 07:27:45;;;;;;;7.40;5.57;;;;;;;;;;4992956;28;20057;-64
2021/09/22 07:30:15;;;;;;;8.30;6.15;;;;;;;;;;4975356;28;20027;-67
2021/09/22 07:32:45;;;;;;;8.73;5.28;;;;;;;;;;4993388;28;20061;-67
2021/09/22 07:35:12;;;;;;;7.93;5.80;;;;;;;;;;4984895;28;20101;-67
2021/09/22 07:37:38;;;;;;;8.52;6.90;;;;;;;;;;4989987;28;20030;-63
2021/09/22 07:40:04;;;;;;;10.23;6.85;;;;;;;;;;4988986;28;20029;-67
2021/09/22 07:42:29;;;;;;;7.13;5.80;;;;;;;;;;4990154;28;20027;-67
2021/09/22 07:44:55;;;;;;;13.38;6.32;;;;;;;;;;4993834;28;20569;-65
2021/09/22 07:47:21;;;;;;;8.80;6.75;;;;;;;;;;4993590;28;20026;-66
2021/09/22 07:49:47;;;;;;;9.40;6.68;;;;;;;;;;4985847;28;20033;-67
2021/09/22 07:52:13;;;;;;;9.63;7.60;;;;;;;;;;4991610;28;20030;-66
2021/09/22 07:54:40;;;;;;;10.60;7.10;;;;;;;;;;4978271;28;20022;-66
2021/09/22 07:57:06;;;;;;;8.80;7.30;;;;;;;;;;4972572;28;20026;-67
2021/09/22 07:59:32;;;;;;;8.07;6.57;;;;;;;;;;4989291;28;20030;-66
2021/09/22 08:01:58;;;;;;;9.05;7.22;;;;;;;;;;4975399;28;20384;-66
2021/09/22 08:04:23;;;;;;;10.40;6.97;;;;;;;;;;4988436;28;20097;-68
2021/09/22 08:06:49;;;;;;;11.07;7.53;;;;;;;;;;4993590;28;20034;-68
2021/09/22 08:09:14;;;;;;;8.40;7.03;;;;;;;;;;4993738;28;20543;-64
2021/09/22 08:11:40;;;;;;;10.70;7.38;;;;;;;;;;4985519;28;20028;-66
2021/09/22 08:14:05;;;;;;;9.98;7.25;;;;;;;;;;4974014;28;20101;-67
2021/09/22 08:16:31;;;;;;;9.05;7.60;;;;;;;;;;4989048;28;20026;-66
2021/09/22 08:18:56;;;;;;;12.88;8.73;;;;;;;;;;4989542;28;20068;-66
2021/09/22 08:21:22;;;;;;;13.30;8.25;;;;;;;;;;4972035;28;20498;-63
2021/09/22 08:23:47;;;;;;;16.45;8.80;;;;;;;;;;4989579;28;20026;-65
2021/09/22 08:26:12;;;;;;;16.17;9.48;;;;;;;;;;4989626;28;20492;-66
2021/09/22 08:28:38;;;;;;;13.15;9.32;;;;;;;;;;4991669;28;20036;-64
2021/09/22 08:31:04;;;;;;;14.18;10.00;;;;;;;;;;4989571;28;20041;-68
2021/09/22 08:33:29;;;;;;;14.35;9.52;;;;;;;;;;4981747;28;20567;-64
2021/09/22 08:35:55;;;;;;;16.15;11.05;;;;;;;;;;4986138;28;20034;-66
2021/09/22 08:38:20;;;;;;;16.58;11.13;;;;;;;;;;4985447;28;20029;-65
2021/09/22 08:40:45;;;;;;;15.98;11.02;;;;;;;;;;4975281;28;20029;-65
2021/09/22 08:43:12;;;;;;;14.90;10.30;;;;;;;;;;4989663;28;20030;-66
2021/09/22 08:45:38;;;;;;;12.77;10.23;;;;;;;;;;4989279;28;20022;-64
2021/09/22 08:48:04;;;;;;;15.52;11.00;;;;;;;;;;4989999;28;20534;-64
2021/09/22 08:50:29;;;;;;;13.98;11.10;;;;;;;;;;4990996;28;20422;-67
2021/09/22 08:52:55;;;;;;;13.02;10.05;;;;;;;;;;4990996;28;20016;-66
2021/09/22 08:55:20;;;;;;;16.08;10.25;;;;;;;;;;4989620;28;20387;-66
2021/09/22 08:57:46;;;;;;;13.50;10.07;;;;;;;;;;4991520;28;20026;-68
2021/09/22 09:00:14;;;;;;;12.63;9.43;;;;;;;;;;4966312;28;20510;-66
2021/09/22 09:02:44;;;;;;;14.18;10.57;;;;;;;;;;4975296;28;20126;-68
2021/09/22 09:05:12;;;;;;;16.20;10.00;;;;;;;;;;4986746;28;20037;-68
2021/09/22 09:07:58;;;;;;;15.23;10.65;;;;;;;;;;4991442;28;20054;-67
2021/09/22 09:10:30;;;;;;;15.38;10.60;;;;;;;;;;4989958;28;20054;-65
2021/09/22 09:12:59;;;;;;;22.27;11.25;;;;;;;;;;4987313;28;20084;-69
2021/09/22 09:15:36;;;;;;;19.40;11.75;;;;;;;;;;4971162;28;20109;-65
2021/09/22 09:18:10;;;;;;;23.38;12.02;;;;;;;;;;4979120;28;20080;-66
2021/09/22 09:20:35;;;;;;;21.85;12.18;;;;;;;;;;4991133;28;20100;-67
2021/09/22 09:23:01;;;;;;;16.95;11.57;;;;;;;;;;4991313;28;20523;-67
2021/09/22 09:25:28;;;;;;;15.35;10.95;;;;;;;;;;4991563;28;20089;-65
2021/09/22 09:27:53;;;;;;;;;;;;;;;;;;4992291;28;20106;-66
2021/09/22 09:30:22;;;;;;;17.67;11.68;;;;;;;;;;4984906;28;20439;-66
2021/09/22 09:32:47;;;;;;;17.45;11.50;;;;;;;;;;4984521;28;20026;-64
2021/09/22 09:35:16;;;;;;;13.25;10.45;;;;;;;;;;4985024;28;20049;-65
2021/09/22 09:37:47;;;;;;;16.48;11.88;;;;;;;;;;4971622;28;20034;-66
2021/09/22 09:40:22;;;;;;;15.00;12.25;;;;;;;;;;4962974;28;20422;-67
2021/09/22 09:42:51;;;;;;;20.48;11.73;;;;;;;;;;4970829;28;20125;-64
2021/09/22 09:45:20;;;;;;;15.90;11.40;;;;;;;;;;4986168;28;20034;-66
2021/09/22 09:48:06;;;;;;;14.82;10.93;;;;;;;;;;4987319;28;20026;-67
2021/09/22 09:50:45;;;;;;;18.52;11.45;;;;;;;;;;4992065;28;20018;-62
2021/09/22 09:53:23;;;;;;;19.50;12.32;;;;;;;;;;4970402;28;20027;-68
2021/09/22 09:55:48;;;;;;;16.08;12.20;;;;;;;;;;4990353;28;20026;-68
2021/09/22 09:58:13;;;;;;;18.65;12.00;;;;;;;;;;4985248;28;20065;-68
2021/09/22 10:00:38;;;;;;;18.70;12.15;;;;;;;;;;4989931;28;20508;-66
2021/09/22 10:03:12;;;;;;;16.10;11.43;;;;;;;;;;4987830;28;20014;-65
2021/09/22 10:05:37;;;;;;;22.00;12.32;;;;;;;;;;4988313;28;20443;-69
2021/09/22 10:08:03;;;;;;;19.60;11.95;;;;;;;;;;4994621;28;20108;-66
2021/09/22 10:10:29;;;;;;;15.85;10.75;;;;;;;;;;4977034;28;20034;-67
2021/09/22 10:12:56;;;;;;;14.35;10.23;;;;;;;;;;4995412;28;20029;-67
2021/09/22 10:15:23;;;;;;;14.75;10.73;;;;;;;;;;4989326;28;20085;-66
2021/09/22 10:17:49;;;;;;;;;;;;;;;;;;4995918;28;20073;-64
2021/09/22 10:20:17;;;;;;;16.43;10.17;;;;;;;;;;4994334;28;19992;-66
2021/09/22 10:22:42;;;;;;;16.52;10.73;;;;;;;;;;4983757;28;20045;-63
2021/09/22 10:25:08;;;;;;;15.45;10.63;;;;;;;;;;4994553;28;20026;-69
2021/09/22 10:27:35;;;;;;;14.57;11.02;;;;;;;;;;4991791;28;20015;-64
2021/09/22 10:30:05;;;;;;;11.95;9.88;;;;;;;;;;4993999;28;20045;-66
2021/09/22 10:32:43;;;;;;;14.00;10.68;;;;;;;;;;4994873;28;20026;-65
2021/09/22 10:35:24;;;;;;;13.90;10.02;;;;;;;;;;4983947;28;20400;-64
2021/09/22 10:37:51;;;;;;;15.88;10.80;;;;;;;;;;4992835;28;20030;-65
2021/09/22 10:40:17;;;;;;;15.50;10.20;;;;;;;;;;4995310;28;20087;-66
2021/09/22 10:42:44;;;;;;;13.97;10.03;;;;;;;;;;4995193;28;20045;-65
2021/09/22 10:45:22;;;;;;;14.15;10.40;;;;;;;;;;4993101;28;20542;-65
2021/09/22 10:47:49;;;;;;;13.68;10.52;;;;;;;;;;4985632;28;20476;-63
2021/09/22 10:50:43;;;;;;;15.15;10.15;;;;;;;;;;4992080;28;20443;-64
2021/09/22 10:53:34;;;;;;;14.90;10.68;;;;;;;;;;4983694;28;20125;-67
2021/09/22 10:56:12;;;;;;;14.30;9.35;;;;;;;;;;4982865;28;20028;-63
2021/09/22 10:58:53;;;;;;;12.65;9.00;;;;;;;;;;4973595;28;20476;-64
2021/09/22 11:01:39;;;;;;;15.35;8.98;;;;;;;;;;4991971;28;20030;-64
2021/09/22 11:04:05;;;;;;;15.35;9.32;;;;;;;;;;4992412;28;20038;-68
2021/09/22 11:06:55;;;;;;;13.95;9.15;;;;;;;;;;4987422;28;20387;-67
2021/09/22 11:09:20;;;;;;;12.82;8.77;;;;;;;;;;4986116;28;20057;-66
2021/09/22 11:14:41;;;;;;;13.38;8.20;;;;;;;;;;4975934;28;20042;-64
2021/09/22 11:17:23;;;;;;;13.02;8.15;;;;;;;;;;4973881;28;20023;-64
2021/09/22 11:19:57;;;;;;;12.73;8.15;;;;;;;;;;4980883;28;20034;-64
2021/09/22 11:22:26;;;;;;;13.18;8.05;;;;;;;;;;4992303;28;20030;-65
2021/09/22 11:24:55;;;;;;;12.52;8.48;;;;;;;;;;4994649;28;20018;-67
2021/09/22 11:27:23;;;;;;;12.77;8.23;;;;;;;;;;4991617;28;20498;-66
2021/09/22 11:29:51;;;;;;;12.02;8.10;;;;;;;;;;4994211;28;20031;-65
2021/09/22 11:32:47;;;;;;;11.43;8.15;;;;;;;;;;4993076;28;20018;-63
2021/09/22 11:35:18;;;;;;;15.38;9.05;;;;;;;;;;4981903;28;20049;-65
2021/09/22 11:37:56;;;;;;;11.07;8.07;;;;;;;;;;4977865;28;20026;-70
2021/09/22 11:40:26;;;;;;;10.50;7.53;;;;;;;;;;4975014;28;20023;-66
2021/09/22 11:43:04;;;;;;;12.60;7.43;;;;;;;;;;4968919;28;20027;-69
2021/09/22 11:45:43;;;;;;;10.43;7.05;;;;;;;;;;4983030;28;20365;-66
2021/09/22 11:48:10;;;;;;;9.45;7.15;;;;;;;;;;4989782;28;20487;-65
2021/09/22 11:50:37;;;;;;;10.73;6.88;;;;;;;;;;4974151;28;20084;-67
2021/09/22 11:53:09;;;;;;;8.98;6.07;;;;;;;;;;4972210;28;20119;-65
2021/09/22 11:55:35;;;;;;;10.20;6.07;;;;;;;;;;4984933;28;20034;-68
2021/09/22 11:58:05;;;;;;;8.52;5.75;;;;;;;;;;4984230;28;20033;-67
2021/09/22 12:00:31;;;;;;;8.25;5.60;;;;;;;;;;4975461;28;20030;-69
2021/09/22 12:02:56;;;;;;;7.75;5.38;;;;;;;;;;4989724;28;20030;-65
2021/09/22 12:05:22;;;;;;;7.65;5.32;;;;;;;;;;4992106;28;20035;-67
2021/09/22 12:07:55;;;;;;;8.88;5.47;;;;;;;;;;4987266;28;20022;-67
2021/09/22 12:10:23;;;;;;;6.72;5.50;;;;;;;;;;4989662;28;20080;-68
2021/09/22 12:12:49;;;;;;;8.88;4.78;;;;;;;;;;4986615;28;20655;-67
2021/09/22 12:15:15;;;;;;;9.40;5.20;;;;;;;;;;4987815;28;20043;-67
2021/09/22 12:17:42;;;;;;;10.38;6.63;;;;;;;;;;4985855;28;20121;-63
2021/09/22 12:20:11;;;;;;;9.48;5.43;;;;;;;;;;4988637;28;20073;-65
2021/09/22 12:22:39;;;;;;;8.07;5.63;;;;;;;;;;4987801;28;20129;-65
2021/09/22 12:25:07;;;;;;;9.82;5.10;;;;;;;;;;4986704;28;20538;-64
2021/09/22 12:27:33;;;;;;;9.30;4.90;;;;;;;;;;4991519;28;20027;-65
2021/09/22 12:30:10;;;;;;;7.53;5.00;;;;;;;;;;4985267;28;20105;-69
2021/09/22 12:32:52;;;;;;;8.90;5.13;;;;;;;;;;4989137;28;20022;-67
2021/09/22 12:35:18;;;;;;;6.20;4.05;;;;;;;;;;4986435;28;20045;-65
2021/09/22 12:37:52;;;;;;;5.18;3.90;;;;;;;;;;4296364;28;10021593;-69
2021/09/22 12:40:26;;;;;;;6.38;3.78;;;;;;;;;;4971784;28;20033;-68
2021/09/22 12:42:51;;;;;;;4.53;3.40;;;;;;;;;;4960627;28;20061;-69
2021/09/22 12:45:25;;;;;;;5.65;3.33;;;;;;;;;;4961332;28;20065;-68
2021/09/22 12:47:57;;;;;;;6.65;3.47;;;;;;;;;;4977285;28;20025;-63
2021/09/22 12:50:30;;;;;;;4.60;2.63;;;;;;;;;;4957383;28;20697;-67
2021/09/22 12:53:15;;;;;;;6.03;2.80;;;;;;;;;;4977638;28;20023;-68
2021/09/22 12:55:45;;;;;;;4.80;1.95;;;;;;;;;;4978923;28;20033;-66
2021/09/22 12:58:21;;;;;;;2.60;1.83;;;;;;;;;;4978155;28;20033;-68
2021/09/22 13:00:57;;;;;;;4.03;2.53;;;;;;;;;;4976930;28;20042;-67
2021/09/22 13:03:26;;;;;;;5.53;2.60;;;;;;;;;;4974230;28;20034;-66
2021/09/22 13:05:57;;;;;;;5.20;2.42;;;;;;;;;;4976426;28;20033;-65
2021/09/22 13:08:26;;;;;;;4.72;2.33;;;;;;;;;;4977190;28;20067;-66
2021/09/22 13:11:09;;;;;;;4.97;2.40;;;;;;;;;;4975978;28;20480;-68
2021/09/22 13:13:36;;;;;;;5.50;2.20;;;;;;;;;;4975577;28;20129;-67
2021/09/22 13:16:17;;;;;;;4.10;2.10;;;;;;;;;;4959832;28;20472;-66
2021/09/22 13:18:44;;;;;;;3.72;2.42;;;;;;;;;;4976633;28;20122;-63
2021/09/22 13:21:11;;;;;;;3.38;2.03;;;;;;;;;;4976083;28;20093;-66
2021/09/22 13:23:41;;;;;;;3.78;1.50;;;;;;;;;;4958858;28;20053;-67
2021/09/22 13:26:06;;;;;;;3.35;1.50;;;;;;;;;;4958350;28;20037;-67
2021/09/22 13:28:32;;;;;;;2.85;1.77;;;;;;;;;;4958412;28;20026;-66
2021/09/22 13:30:59;;;;;;;3.65;2.10;;;;;;;;;;4975942;28;20022;-67
2021/09/22 13:33:24;;;;;;;4.18;2.88;;;;;;;;;;4974171;28;20061;-69
2021/09/22 13:35:50;;;;;;;5.05;3.10;;;;;;;;;;4975677;28;20026;-66
2021/09/22 13:38:15;;;;;;;6.18;3.80;;;;;;;;;;4974004;28;20018;-69
2021/09/22 13:40:41;;;;;;;4.53;3.30;;;;;;;;;;4973597;28;20030;-64
2021/09/22 13:43:06;;;;;;;7.13;3.05;;;;;;;;;;4976429;28;20025;-65
2021/09/22 13:45:31;;;;;;;4.78;2.83;;;;;;;;;;4977829;28;20054;-67
2021/09/22 13:47:57;;;;;;;6.18;3.78;;;;;;;;;;4976270;28;20053;-67
2021/09/22 13:50:24;;;;;;;5.93;3.38;;;;;;;;;;4975070;28;20060;-67
2021/09/22 13:52:49;;;;;;;5.13;3.17;;;;;;;;;;4976283;28;20027;-64
2021/09/22 13:55:15;;;;;;;3.78;2.40;;;;;;;;;;4975744;28;20301;-66
2021/09/22 13:57:40;;;;;;;3.05;1.50;;;;;;;;;;4976651;28;20117;-64
2021/09/22 14:00:06;;;;;;;4.35;2.60;;;;;;;;;;4977049;28;20491;-64
2021/09/22 14:02:32;;;;;;;5.43;2.90;;;;;;;;;;4955449;28;20046;-65
2021/09/22 14:04:57;;;;;;;5.85;2.90;;;;;;;;;;4958807;28;20099;-67
2021/09/22 14:07:23;;;;;;;3.75;2.45;;;;;;;;;;4974706;28;20040;-67
2021/09/22 14:09:48;;;;;;;5.38;1.67;;;;;;;;;;4976604;28;20438;-65
2021/09/22 14:12:14;;;;;;;2.60;1.58;;;;;;;;;;4976559;28;20468;-68
2021/09/22 14:14:39;;;;;;;5.80;2.05;;;;;;;;;;4975380;28;20200;-67
2021/09/22 14:17:05;;;;;;;3.45;1.90;;;;;;;;;;4959361;28;20031;-65
2021/09/22 14:19:30;;;;;;;3.25;2.00;;;;;;;;;;4977008;28;20034;-65
2021/09/22 14:21:55;;;;;;;4.60;2.97;;;;;;;;;;4975932;28;20019;-68
2021/09/22 14:24:21;;;;;;;3.08;2.38;;;;;;;;;;4958966;28;20103;-66
2021/09/22 14:26:46;;;;;;;4.03;2.63;;;;;;;;;;4974536;28;20077;-69
2021/09/22 14:29:13;;;;;;;3.70;2.60;;;;;;;;;;4976524;28;20023;-69
2021/09/22 14:31:39;;;;;;;4.28;2.53;;;;;;;;;;4975833;28;20408;-64
2021/09/22 14:34:05;;;;;;;3.97;2.33;;;;;;;;;;4974524;28;20050;-66
2021/09/22 14:36:31;;;;;;;4.00;2.95;;;;;;;;;;4976335;28;20022;-66
2021/09/22 14:38:58;;;;;;;4.00;2.63;;;;;;;;;;4974916;28;20101;-67